Time;durP1;ratioP1;P1;durP2;ratioP2;P2;SDS_P1;SDS_P2;PMS_P1;PMS_P2;Temp;Humidity;BMP_temperature;BMP_pressure;BME280_temperature;BME280_humidity;BME280_pressure;Samples;Min_cycle;Max_cycle;Signal;HPM_P1;HPM_P2
2023/11/10 00:01:17;;;;;;;3.60;2.30;;;;;;;22.19;55.52;97952.84;105873;1256;60523;-49
2023/11/10 00:03:44;;;;;;;2.70;2.30;;;;;;;22.17;55.56;97950.01;105927;1251;73556;-49
2023/11/10 00:06:12;;;;;;;2.20;2.00;;;;;;;22.16;55.65;97952.49;105946;1260;66304;-49
2023/11/10 00:08:39;;;;;;;2.30;2.10;;;;;;;22.16;55.74;97954.60;105898;1255;72447;-50
2023/11/10 00:11:07;;;;;;;2.80;2.00;;;;;;;22.16;55.63;97952.48;105892;1256;60427;-49
2023/11/10 00:13:35;;;;;;;3.60;2.30;;;;;;;22.15;55.58;97956.36;105735;1256;60337;-50
2023/11/10 00:16:02;;;;;;;2.20;2.00;;;;;;;22.14;55.60;97955.27;105659;1256;73846;-49
2023/11/10 00:18:30;;;;;;;2.70;2.30;;;;;;;22.14;55.59;97954.95;105657;1257;65853;-50
2023/11/10 00:20:57;;;;;;;2.70;2.20;;;;;;;22.13;55.61;97948.33;108259;1251;72353;-50
2023/11/10 00:23:27;;;;;;;2.50;2.20;;;;;;;22.13;55.56;97950.41;109329;1256;59662;-50
2023/11/10 00:25:54;;;;;;;2.10;1.90;;;;;;;22.13;55.63;97950.64;109416;1253;58725;-51
2023/11/10 00:28:21;;;;;;;2.30;2.10;;;;;;;22.13;55.67;97946.30;106139;1255;72527;-51
2023/11/10 00:30:48;;;;;;;2.60;2.10;;;;;;;22.14;55.55;97944.98;105992;1257;65407;-51
2023/11/10 00:33:16;;;;;;;2.60;2.10;;;;;;;22.14;55.52;97944.98;105982;1256;72641;-51
2023/11/10 00:35:43;;;;;;;2.20;2.00;;;;;;;22.14;55.64;97946.23;105997;1256;60804;-51
2023/11/10 00:38:10;;;;;;;5.10;2.10;;;;;;;22.14;55.40;97944.98;105928;1256;60338;-49
2023/11/10 00:40:37;;;;;;;2.20;2.00;;;;;;;22.14;55.53;97940.08;105940;1257;73484;-50
2023/11/10 00:43:05;;;;;;;2.40;2.20;;;;;;;22.14;55.41;97944.66;105974;1264;65912;-50
2023/11/10 00:45:32;;;;;;;2.30;1.90;;;;;;;22.13;55.35;97940.44;106002;1257;72591;-51
2023/11/10 00:48:00;;;;;;;2.60;2.20;;;;;;;22.12;55.37;97939.80;105637;1257;60559;-49
2023/11/10 00:50:27;;;;;;;4.40;2.30;;;;;;;22.12;55.42;97939.25;105983;1260;61085;-49
2023/11/10 00:52:55;;;;;;;2.20;2.00;;;;;;;22.11;55.54;97941.35;105652;1252;73753;-50
2023/11/10 00:55:22;;;;;;;2.70;2.10;;;;;;;22.11;55.34;97938.85;105505;1257;66616;-50
2023/11/10 00:57:49;;;;;;;2.10;1.90;;;;;;;22.10;55.17;97939.77;105680;1257;72893;-51
2023/11/10 01:00:17;;;;;;;2.90;2.00;;;;;;;22.10;55.44;97936.42;105600;1267;60530;-50
2023/11/10 01:02:44;;;;;;;2.90;2.00;;;;;;;22.09;55.41;97934.07;105827;1257;60444;-50
2023/11/10 01:05:14;;;;;;;2.90;2.10;;;;;;;22.08;55.51;97932.57;105981;1253;73803;-49
2023/11/10 01:07:42;;;;;;;2.30;2.10;;;;;;;22.07;55.34;97932.95;105949;1256;66173;-49
2023/11/10 01:10:09;;;;;;;2.70;2.30;;;;;;;22.07;55.49;97932.48;105930;1256;72687;-49
2023/11/10 01:12:37;;;;;;;2.60;2.10;;;;;;;22.07;55.36;97927.95;106000;1257;60369;-50
2023/11/10 01:15:05;;;;;;;2.30;2.10;;;;;;;22.05;55.47;97926.06;105956;1256;60437;-49
2023/11/10 01:17:32;;;;;;;2.70;2.30;;;;;;;22.05;55.36;97922.77;106016;1264;74251;-50
2023/11/10 01:20:00;;;;;;;2.10;1.60;;;;;;;22.04;55.37;97916.61;105798;1256;65629;-49
2023/11/10 01:22:28;;;;;;;2.50;1.80;;;;;;;22.03;55.26;97919.11;105689;1257;72626;-50
2023/11/10 01:24:55;;;;;;;2.50;1.90;;;;;;;22.02;55.40;97907.63;105643;1256;60834;-50
2023/11/10 01:27:22;;;;;;;2.50;2.00;;;;;;;22.02;55.54;97907.70;105670;1254;60428;-49
2023/11/10 01:29:49;;;;;;;2.00;1.80;;;;;;;22.01;55.51;97905.51;105632;1257;73562;-50
2023/11/10 01:32:17;;;;;;;3.40;2.20;;;;;;;22.00;55.39;97906.73;105971;1257;63928;-49
2023/11/10 01:34:45;;;;;;;2.70;2.20;;;;;;;22.00;55.40;97904.80;105879;1251;72557;-50
2023/11/10 01:37:12;;;;;;;2.40;2.00;;;;;;;21.99;55.26;97902.67;106001;1256;60504;-50
2023/11/10 01:39:39;;;;;;;3.10;2.10;;;;;;;21.99;55.43;97903.84;105944;1251;60319;-50
2023/11/10 01:42:08;;;;;;;2.40;2.00;;;;;;;21.98;55.44;97903.66;105706;1256;73807;-49
2023/11/10 01:44:35;;;;;;;2.20;1.90;;;;;;;21.98;55.36;97899.61;105619;1251;66092;-50
2023/11/10 01:47:04;;;;;;;3.00;2.00;;;;;;;21.98;55.46;97896.17;105606;1257;72554;-49
2023/11/10 01:49:31;;;;;;;2.50;1.90;;;;;;;21.97;55.57;97897.81;105911;1256;60542;-50
2023/11/10 01:51:58;;;;;;;2.70;2.00;;;;;;;21.97;55.28;97896.70;105737;1251;60552;-50
2023/11/10 01:54:34;;;;;;;3.70;2.20;;;;;;;21.96;55.29;97893.04;105689;1251;73759;-50
2023/11/10 01:57:03;;;;;;;2.10;1.90;;;;;;;21.96;55.37;97892.49;105714;1251;64864;-49
2023/11/10 01:59:34;;;;;;;2.30;2.10;;;;;;;21.96;55.45;97891.63;105897;1257;73113;-50
2023/11/10 02:02:05;;;;;;;2.70;2.00;;;;;;;21.96;55.43;97887.44;105549;1257;60530;-49
2023/11/10 02:04:33;;;;;;;2.10;1.90;;;;;;;21.96;55.38;97883.23;105625;1251;60527;-50
2023/11/10 02:07:00;;;;;;;2.50;2.10;;;;;;;21.95;55.46;97883.75;105545;1257;72143;-50
2023/11/10 02:09:28;;;;;;;2.80;2.30;;;;;;;21.95;55.32;97884.38;105765;1257;65654;-49
2023/11/10 02:11:55;;;;;;;2.10;1.90;;;;;;;21.95;55.39;97883.84;105919;1251;72634;-49
2023/11/10 02:14:23;;;;;;;2.70;1.90;;;;;;;21.96;55.34;97884.47;105924;1258;60581;-49
2023/11/10 02:16:50;;;;;;;2.00;1.80;;;;;;;21.94;55.31;97877.04;105890;1251;60533;-49
2023/11/10 02:19:17;;;;;;;2.10;1.70;;;;;;;21.93;55.41;97875.16;105907;1256;74187;-49
2023/11/10 02:21:47;;;;;;;2.40;1.90;;;;;;;21.94;55.31;97875.16;105934;1256;66093;-49
2023/11/10 02:24:15;;;;;;;2.20;1.90;;;;;;;21.93;55.31;97875.23;105938;1257;72558;-49
2023/11/10 02:26:44;;;;;;;2.10;1.70;;;;;;;21.93;55.39;97873.75;105816;1257;61193;-49
2023/11/10 02:29:12;;;;;;;2.50;1.80;;;;;;;21.93;55.24;97875.61;105944;1251;61208;-49
2023/11/10 02:31:40;;;;;;;2.60;1.90;;;;;;;21.92;55.41;97874.35;105779;1257;74546;-49
2023/11/10 02:34:07;;;;;;;2.10;1.90;;;;;;;21.92;55.43;97872.55;105998;1256;66184;-49
2023/11/10 02:36:37;;;;;;;2.20;2.00;;;;;;;21.91;55.29;97869.66;105956;1255;72585;-49
2023/11/10 02:39:05;;;;;;;1.80;1.70;;;;;;;21.91;55.33;97874.33;105958;1258;61240;-49
2023/11/10 02:41:36;;;;;;;2.50;1.80;;;;;;;21.91;55.34;97869.42;105946;1257;61232;-49
2023/11/10 02:44:04;;;;;;;2.30;2.00;;;;;;;21.91;55.34;97867.88;105733;1256;73437;-49
2023/11/10 02:46:31;;;;;;;1.90;1.70;;;;;;;21.91;55.31;97872.08;105969;1251;65952;-49
2023/11/10 02:48:59;;;;;;;2.30;2.00;;;;;;;21.91;55.42;97873.41;105875;1257;72577;-49
2023/11/10 02:51:26;;;;;;;2.50;2.20;;;;;;;21.91;55.39;97872.55;105864;1257;61231;-49
2023/11/10 02:53:54;;;;;;;1.90;1.70;;;;;;;21.90;55.16;97867.55;105953;1256;61704;-49
2023/11/10 02:56:21;;;;;;;2.20;1.90;;;;;;;21.90;55.09;97868.88;105961;1251;75027;-51
2023/11/10 02:58:48;;;;;;;2.60;1.90;;;;;;;21.90;55.26;97868.64;108154;1251;64169;-49
2023/11/10 03:01:22;;;;;;;2.20;1.90;;;;;;;21.90;55.32;97866.53;109309;1251;71385;-48
2023/11/10 03:03:50;;;;;;;2.80;2.10;;;;;;;21.90;55.35;97867.87;109453;1251;59144;-50
2023/11/10 03:06:18;;;;;;;2.60;1.90;;;;;;;21.92;55.20;97867.11;106254;1251;61282;-51
2023/11/10 03:08:45;;;;;;;2.00;1.70;;;;;;;21.92;55.11;97858.77;105953;1257;75135;-50
2023/11/10 03:11:13;;;;;;;2.50;2.00;;;;;;;21.92;55.27;97856.90;105988;1255;64345;-50
2023/11/10 03:13:41;;;;;;;1.90;1.70;;;;;;;21.92;55.12;97859.87;105952;1257;72629;-50
2023/11/10 03:16:09;;;;;;;2.60;2.00;;;;;;;21.92;55.05;97857.54;105725;1257;61154;-50
2023/11/10 03:18:36;;;;;;;3.00;1.90;;;;;;;21.92;55.01;97855.58;105601;1254;61385;-50
2023/11/10 03:21:06;;;;;;;2.50;2.00;;;;;;;21.91;54.97;97852.92;105703;1256;74377;-50
2023/11/10 03:23:34;;;;;;;2.20;2.00;;;;;;;21.91;55.20;97848.23;105520;1256;64076;-50
2023/11/10 03:26:03;;;;;;;3.00;2.20;;;;;;;21.90;55.03;97849.02;105630;1251;72599;-50
2023/11/10 03:28:30;;;;;;;2.50;2.10;;;;;;;21.90;55.14;97844.02;105645;1257;61320;-50
2023/11/10 03:30:58;;;;;;;2.80;2.30;;;;;;;21.90;55.16;97844.10;105960;1256;61268;-50
2023/11/10 03:33:26;;;;;;;3.90;1.80;;;;;;;21.90;54.94;97839.98;105903;1256;74724;-50
2023/11/10 03:35:53;;;;;;;1.90;1.70;;;;;;;21.89;54.97;97835.90;105938;1257;64103;-50
2023/11/10 03:38:21;;;;;;;2.50;1.80;;;;;;;21.89;55.03;97829.11;105962;1251;72423;-50
2023/11/10 03:40:49;;;;;;;2.10;1.90;;;;;;;21.88;55.07;97832.23;105954;1256;61339;-49
2023/11/10 03:43:16;;;;;;;2.40;1.80;;;;;;;21.88;54.87;97830.75;105634;1256;61260;-50
2023/11/10 03:45:44;;;;;;;2.10;1.90;;;;;;;21.87;54.92;97829.73;105766;1254;74372;-50
2023/11/10 03:48:11;;;;;;;2.00;1.80;;;;;;;21.87;55.02;97827.38;105825;1257;65895;-50
2023/11/10 03:50:41;;;;;;;2.10;1.90;;;;;;;21.86;54.98;97822.94;105593;1257;72610;-50
2023/11/10 03:53:08;;;;;;;2.50;1.90;;;;;;;21.86;55.07;97822.48;105673;1251;61249;-50
2023/11/10 03:55:36;;;;;;;2.20;1.90;;;;;;;21.85;54.97;97816.61;105879;1257;61232;-49
2023/11/10 03:58:03;;;;;;;3.00;2.00;;;;;;;21.86;54.91;97816.39;105865;1251;74566;-49
2023/11/10 04:00:30;;;;;;;2.90;1.70;;;;;;;21.85;54.95;97812.10;106132;1251;66187;-49
2023/11/10 04:03:14;;;;;;;1.80;1.70;;;;;;;21.85;54.97;97811.63;105648;1251;72513;-50
2023/11/10 04:05:44;;;;;;;2.00;1.80;;;;;;;21.84;54.90;97811.21;105684;1251;61125;-51
2023/11/10 04:08:14;;;;;;;6.30;1.90;;;;;;;21.83;54.94;97810.64;105632;1251;61211;-50
2023/11/10 04:10:42;;;;;;;2.10;1.90;;;;;;;21.83;55.01;97806.82;105687;1252;74524;-50
2023/11/10 04:13:09;;;;;;;2.30;1.90;;;;;;;21.82;54.92;97810.48;105793;1256;66076;-50
2023/11/10 04:15:37;;;;;;;2.20;2.00;;;;;;;21.83;54.98;97806.19;105873;1257;73022;-50
2023/11/10 04:18:04;;;;;;;2.20;1.90;;;;;;;21.81;54.92;97798.92;105759;1251;61196;-50
2023/11/10 04:20:34;;;;;;;1.70;1.60;;;;;;;21.81;55.03;97799.92;106000;1251;61233;-49
2023/11/10 04:23:01;;;;;;;1.90;1.70;;;;;;;21.80;54.92;97796.20;105595;1251;74357;-49
2023/11/10 04:25:30;;;;;;;2.20;1.80;;;;;;;21.80;55.01;97790.42;106072;1256;66059;-50
2023/11/10 04:28:00;;;;;;;2.10;1.90;;;;;;;21.80;54.77;97790.42;105679;1251;72588;-49
2023/11/10 04:30:28;;;;;;;2.40;2.20;;;;;;;21.80;55.00;97785.83;106208;1255;61362;-49
2023/11/10 04:32:55;;;;;;;1.90;1.70;;;;;;;21.79;54.86;97783.86;106021;1251;61253;-49
2023/11/10 04:35:23;;;;;;;1.90;1.70;;;;;;;21.80;54.98;97783.41;106457;1251;74477;-49
2023/11/10 04:37:50;;;;;;;1.90;1.70;;;;;;;21.80;54.90;97783.48;105995;1256;65781;-49
2023/11/10 04:40:18;;;;;;;2.40;1.80;;;;;;;21.80;55.00;97780.46;105903;1256;72608;-49
2023/11/10 04:42:45;;;;;;;2.20;1.80;;;;;;;21.80;55.05;97779.28;105976;1251;61292;-49
2023/11/10 04:45:13;;;;;;;2.30;1.70;;;;;;;21.80;55.12;97777.18;106009;1254;61313;-49
2023/11/10 04:47:41;;;;;;;2.20;1.90;;;;;;;21.81;55.09;97777.96;105779;1252;74624;-49
2023/11/10 04:50:09;;;;;;;2.00;1.80;;;;;;;21.81;55.13;97775.63;105898;1257;65815;-49
2023/11/10 04:52:36;;;;;;;1.80;1.60;;;;;;;21.81;54.88;97773.54;105927;1251;72393;-49
2023/11/10 04:55:04;;;;;;;2.10;1.90;;;;;;;21.81;55.05;97770.49;105887;1258;61333;-49
2023/11/10 04:57:31;;;;;;;2.00;1.90;;;;;;;21.81;54.97;97772.05;105789;1254;61346;-49
2023/11/10 05:00:00;;;;;;;2.00;1.80;;;;;;;21.81;55.04;97770.35;105640;1254;74633;-49
2023/11/10 05:02:28;;;;;;;2.30;1.80;;;;;;;21.82;54.97;97774.41;105735;1255;66195;-49
2023/11/10 05:04:56;;;;;;;2.40;1.90;;;;;;;21.82;55.00;97769.02;105678;1254;72887;-48
2023/11/10 05:07:26;;;;;;;2.50;2.10;;;;;;;21.82;54.99;97777.29;105648;1251;61284;-50
2023/11/10 05:09:54;;;;;;;1.90;1.70;;;;;;;21.82;55.02;97775.26;105670;1251;61285;-50
2023/11/10 05:12:23;;;;;;;2.00;1.80;;;;;;;21.83;55.02;97779.56;105693;1257;74338;-51
2023/11/10 05:14:50;;;;;;;2.10;1.70;;;;;;;21.83;55.05;97775.52;105638;1257;66187;-49
2023/11/10 05:17:17;;;;;;;2.80;1.90;;;;;;;21.83;54.94;97778.64;105706;1251;73052;-49
2023/11/10 05:19:45;;;;;;;2.10;1.90;;;;;;;21.83;54.92;97778.40;105792;1258;61329;-49
2023/11/10 05:22:12;;;;;;;2.20;1.60;;;;;;;21.84;54.97;97772.56;105830;1251;61313;-49
2023/11/10 05:24:43;;;;;;;1.70;1.60;;;;;;;21.85;54.98;97779.06;105960;1251;74328;-50
2023/11/10 05:27:11;;;;;;;1.60;1.50;;;;;;;21.85;55.00;97776.58;105927;1255;65994;-49
2023/11/10 05:29:38;;;;;;;1.90;1.80;;;;;;;21.86;54.74;97779.55;105806;1254;72625;-49
2023/11/10 05:32:06;;;;;;;1.70;1.60;;;;;;;21.86;54.95;97778.07;105880;1257;61254;-49
2023/11/10 05:34:33;;;;;;;2.60;1.70;;;;;;;21.87;54.80;97779.09;105801;1251;61308;-49
2023/11/10 05:37:01;;;;;;;2.20;1.80;;;;;;;21.87;54.79;97778.01;108130;1251;74668;-50
2023/11/10 05:39:35;;;;;;;2.80;1.70;;;;;;;21.88;54.96;97776.38;109352;1251;65032;-49
2023/11/10 05:42:03;;;;;;;6.20;1.90;;;;;;;21.89;54.85;97773.52;109528;1251;71111;-49
2023/11/10 05:44:31;;;;;;;2.00;1.80;;;;;;;21.90;54.83;97776.41;106120;1256;61253;-51
2023/11/10 05:46:58;;;;;;;1.90;1.80;;;;;;;21.91;54.76;97776.27;105829;1251;61342;-49
2023/11/10 05:49:26;;;;;;;1.70;1.60;;;;;;;21.93;54.60;97776.77;105669;1256;73143;-49
2023/11/10 05:51:53;;;;;;;3.80;2.20;;;;;;;21.94;54.68;97774.66;105910;1251;66015;-49
2023/11/10 05:54:21;;;;;;;3.00;2.60;;;;;;;21.93;54.21;97770.38;105780;1251;72647;-48
2023/11/10 05:56:48;;;;;;;2.90;2.60;;;;;;;21.93;53.97;97772.02;105714;1256;61291;-48
2023/11/10 05:59:16;;;;;;;3.00;2.60;;;;;;;21.93;53.51;97772.71;105615;1251;61225;-48
2023/11/10 06:01:43;;;;;;;2.50;2.30;;;;;;;21.93;52.98;97777.08;105631;1251;74401;-47
2023/11/10 06:04:11;;;;;;;6.50;2.70;;;;;;;21.91;53.04;97771.90;105580;1253;64795;-49
2023/11/10 06:06:55;;;;;;;3.90;2.50;;;;;;;21.91;52.72;97783.20;106972;1252;72821;-48
2023/11/10 06:09:22;;;;;;;3.60;2.70;;;;;;;21.90;52.62;97781.95;105925;1256;61332;-49
2023/11/10 06:11:50;;;;;;;3.10;2.80;;;;;;;21.91;52.52;97780.23;106315;1251;61243;-49
2023/11/10 06:14:22;;;;;;;2.80;2.40;;;;;;;21.90;52.51;97774.63;105645;1251;73491;-48
2023/11/10 06:16:49;;;;;;;3.10;2.70;;;;;;;21.90;52.36;97773.91;105907;1255;66082;-49
2023/11/10 06:19:16;;;;;;;3.10;2.60;;;;;;;21.89;52.45;97773.66;105635;1254;72681;-49
2023/11/10 06:21:44;;;;;;;3.00;2.50;;;;;;;21.88;52.33;97773.89;105416;1254;61170;-48
2023/11/10 06:24:11;;;;;;;3.80;2.80;;;;;;;21.88;52.18;97776.23;105883;1251;61329;-49
2023/11/10 06:26:39;;;;;;;4.40;2.40;;;;;;;21.88;52.39;97772.41;105731;1251;74287;-48
2023/11/10 06:29:06;;;;;;;4.10;2.50;;;;;;;21.87;52.50;97766.88;105741;1257;65500;-51
2023/11/10 06:31:34;;;;;;;3.30;2.70;;;;;;;21.87;52.46;97769.05;105877;1251;73210;-47
2023/11/10 06:34:01;;;;;;;3.50;2.70;;;;;;;21.87;52.47;97774.58;105674;1256;62004;-48
2023/11/10 06:36:29;;;;;;;3.20;2.50;;;;;;;21.87;52.46;97778.47;105903;1251;61241;-49
2023/11/10 06:38:56;;;;;;;2.50;2.30;;;;;;;21.88;52.58;97779.42;105856;1254;74300;-48
2023/11/10 06:41:24;;;;;;;4.20;3.00;;;;;;;21.87;52.58;97769.52;105735;1253;65674;-48
2023/11/10 06:43:51;;;;;;;3.20;2.50;;;;;;;21.87;52.55;97768.41;105714;1252;72651;-48
2023/11/10 06:46:26;;;;;;;3.50;2.70;;;;;;;21.86;52.67;97764.60;105606;1256;61334;-48
2023/11/10 06:48:55;;;;;;;3.70;2.50;;;;;;;21.87;52.55;97760.01;105801;1251;61253;-48
2023/11/10 06:51:23;;;;;;;5.70;3.20;;;;;;;21.86;52.58;97760.23;105874;1254;73458;-48
2023/11/10 06:53:51;;;;;;;2.40;2.20;;;;;;;21.86;52.72;97759.69;105712;1255;66712;-48
2023/11/10 06:56:18;;;;;;;3.40;2.60;;;;;;;21.86;52.64;97759.30;105836;1251;72634;-48
2023/11/10 06:58:46;;;;;;;3.10;2.50;;;;;;;21.86;52.64;97753.30;105681;1256;61246;-48
2023/11/10 07:01:13;;;;;;;4.30;2.70;;;;;;;21.86;52.55;97748.62;105849;1251;61355;-47
2023/11/10 07:03:42;;;;;;;4.50;2.50;;;;;;;21.86;52.62;97751.27;105657;1253;73903;-48
2023/11/10 07:06:09;;;;;;;3.40;2.80;;;;;;;21.86;52.80;97750.43;105853;1254;67552;-48
2023/11/10 07:08:38;;;;;;;3.90;2.90;;;;;;;21.86;52.86;97740.45;105705;1251;73731;-48
2023/11/10 07:11:07;;;;;;;3.60;2.70;;;;;;;21.86;52.85;97736.33;105652;1251;61173;-48
2023/11/10 07:13:37;;;;;;;3.20;2.50;;;;;;;21.86;52.96;97732.83;105798;1252;61291;-48
2023/11/10 07:16:06;;;;;;;4.00;2.80;;;;;;;21.87;52.78;97727.84;105779;1256;75534;-50
2023/11/10 07:18:34;;;;;;;3.30;2.70;;;;;;;21.87;52.79;97728.30;105576;1251;64107;-48
2023/11/10 07:21:01;;;;;;;6.30;3.00;;;;;;;21.86;52.73;97726.28;105549;1251;72563;-49
2023/11/10 07:23:29;;;;;;;3.40;3.00;;;;;;;21.86;52.66;97727.14;105766;1257;61372;-49
2023/11/10 07:25:57;;;;;;;5.00;3.00;;;;;;;21.87;52.88;97726.12;105777;1251;61276;-51
2023/11/10 07:28:25;;;;;;;3.40;2.70;;;;;;;21.86;52.69;97727.67;105720;1255;73404;-49
2023/11/10 07:30:52;;;;;;;3.30;2.50;;;;;;;21.87;52.78;97726.36;105803;1253;64996;-48
2023/11/10 07:33:20;;;;;;;3.50;2.70;;;;;;;21.87;52.85;97723.33;105761;1251;72498;-49
2023/11/10 07:35:47;;;;;;;4.50;2.90;;;;;;;21.88;52.91;97727.15;106008;1254;61381;-50
2023/11/10 07:38:15;;;;;;;3.30;2.60;;;;;;;21.89;52.96;97724.19;105688;1254;61196;-49
2023/11/10 07:40:42;;;;;;;3.90;2.80;;;;;;;21.90;52.91;97728.27;105779;1253;74324;-48
2023/11/10 07:43:11;;;;;;;3.20;2.40;;;;;;;21.91;53.07;97730.14;105874;1254;66036;-49
2023/11/10 07:45:39;;;;;;;5.30;2.70;;;;;;;21.92;53.16;97731.17;105815;1251;72581;-51
2023/11/10 07:48:08;;;;;;;5.00;2.90;;;;;;;21.92;53.13;97737.80;105673;1257;61294;-51
2023/11/10 07:50:36;;;;;;;2.60;2.40;;;;;;;21.93;53.24;97741.33;105772;1254;61144;-50
2023/11/10 07:53:03;;;;;;;4.20;2.60;;;;;;;21.93;53.27;97737.97;105837;1251;74003;-47
2023/11/10 07:55:31;;;;;;;3.80;2.50;;;;;;;21.94;53.42;97737.75;106071;1251;66234;-48
2023/11/10 07:57:58;;;;;;;2.50;2.30;;;;;;;21.95;53.24;97734.64;105895;1251;72670;-49
2023/11/10 08:00:26;;;;;;;2.90;2.10;;;;;;;21.95;53.34;97732.54;106284;1254;61425;-49
2023/11/10 08:02:54;;;;;;;4.80;2.70;;;;;;;21.96;53.44;97736.53;105755;1251;61329;-50
2023/11/10 08:05:22;;;;;;;3.10;2.40;;;;;;;21.97;53.45;97737.33;106176;1257;74656;-48
2023/11/10 08:07:52;;;;;;;2.90;2.20;;;;;;;21.97;53.56;97727.13;105879;1254;65069;-48
2023/11/10 08:10:22;;;;;;;4.20;2.70;;;;;;;21.99;53.48;97720.67;105771;1254;72487;-49
2023/11/10 08:12:50;;;;;;;2.90;2.50;;;;;;;21.99;53.57;97728.23;105782;1256;61258;-50
2023/11/10 08:15:18;;;;;;;2.90;2.40;;;;;;;22.00;53.78;97729.42;106221;1251;61356;-50
2023/11/10 08:17:46;;;;;;;4.40;2.80;;;;;;;22.00;53.23;97732.45;108616;1251;72167;-49
2023/11/10 08:20:13;;;;;;;4.30;3.00;;;;;;;22.01;53.10;97731.05;109050;1251;64247;-49
2023/11/10 08:22:41;;;;;;;5.90;2.80;;;;;;;22.00;52.81;97732.84;108680;1254;71410;-49
2023/11/10 08:25:11;;;;;;;3.10;2.80;;;;;;;22.01;52.52;97732.23;106081;1255;61413;-47
2023/11/10 08:27:39;;;;;;;4.00;3.40;;;;;;;22.00;52.32;97727.94;106011;1252;61254;-50
2023/11/10 08:30:11;;;;;;;4.50;3.10;;;;;;;22.00;52.13;97721.55;105666;1253;74671;-49
2023/11/10 08:32:40;;;;;;;5.00;3.10;;;;;;;21.99;51.81;97724.42;105761;1253;66394;-50
2023/11/10 08:35:09;;;;;;;7.30;3.50;;;;;;;21.99;51.69;97726.69;105655;1254;73442;-49
2023/11/10 08:37:37;;;;;;;5.50;3.10;;;;;;;21.99;51.65;97722.55;105781;1251;61362;-50
2023/11/10 08:40:06;;;;;;;4.40;3.30;;;;;;;21.99;51.64;97724.96;105817;1251;61269;-51
2023/11/10 08:42:33;;;;;;;5.30;3.20;;;;;;;21.99;51.67;97714.27;105737;1256;75406;-49
2023/11/10 08:45:01;;;;;;;4.70;3.30;;;;;;;21.98;51.52;97713.80;105833;1257;67554;-50
2023/11/10 08:47:29;;;;;;;4.70;3.30;;;;;;;21.99;51.77;97714.84;105934;1254;73448;-50
2023/11/10 08:49:58;;;;;;;4.20;3.20;;;;;;;22.01;51.77;97716.73;105814;1254;61253;-50
2023/11/10 08:52:28;;;;;;;6.80;3.60;;;;;;;22.02;51.74;97714.48;105604;1254;60074;-52
2023/11/10 08:54:56;;;;;;;4.10;3.30;;;;;;;22.04;52.02;97709.36;105695;1253;74624;-50
2023/11/10 08:57:23;;;;;;;5.00;3.20;;;;;;;22.05;51.89;97706.80;105659;1254;65793;-54
2023/11/10 08:59:52;;;;;;;4.10;3.50;;;;;;;22.07;51.93;97704.80;105442;1251;72410;-52
2023/11/10 09:02:19;;;;;;;5.30;3.40;;;;;;;22.08;51.96;97703.71;105476;1255;156892;-55
2023/11/10 09:04:48;;;;;;;3.60;3.20;;;;;;;22.09;52.29;97694.61;107329;1253;61492;-48
2023/11/10 09:07:16;;;;;;;6.30;3.60;;;;;;;22.11;52.66;97689.17;106338;1254;76021;-54
2023/11/10 09:09:45;;;;;;;4.70;3.40;;;;;;;22.12;52.92;97685.38;105884;1254;64751;-55
2023/11/10 09:12:12;;;;;;;4.50;3.10;;;;;;;22.14;53.06;97680.64;105767;1251;73090;-53
2023/11/10 09:14:39;;;;;;;6.40;3.10;;;;;;;22.16;53.25;97681.05;105869;1254;61329;-50
2023/11/10 09:17:07;;;;;;;8.50;3.80;;;;;;;22.17;53.27;97682.55;105610;1251;61333;-52
2023/11/10 09:19:34;;;;;;;6.80;2.70;;;;;;;22.19;53.47;97682.80;105455;1253;74402;-52
2023/11/10 09:22:01;;;;;;;7.50;3.50;;;;;;;22.20;53.58;97677.52;105410;1256;64317;-52
2023/11/10 09:24:29;;;;;;;7.10;3.10;;;;;;;22.22;53.66;97677.00;105527;1251;73471;-50
2023/11/10 09:27:00;;;;;;;9.30;3.40;;;;;;;22.25;53.80;97675.16;107926;1254;61256;-51
2023/11/10 09:29:27;;;;;;;3.80;2.70;;;;;;;22.26;53.79;97667.99;105390;1251;61314;-52
2023/11/10 09:31:56;;;;;;;5.20;2.80;;;;;;;22.29;53.81;97667.16;105464;1256;74763;-52
2023/11/10 09:34:25;;;;;;;4.40;2.90;;;;;;;22.31;53.80;97665.70;106865;1253;63611;-49
2023/11/10 09:36:53;;;;;;;3.70;2.80;;;;;;;22.34;53.83;97659.80;105781;1251;73274;-51
2023/11/10 09:39:20;;;;;;;5.30;3.10;;;;;;;22.35;53.69;97654.91;105939;1254;61294;-53
2023/11/10 09:41:48;;;;;;;4.30;2.90;;;;;;;22.36;53.61;97652.12;105708;1254;61332;-51
2023/11/10 09:44:16;;;;;;;4.60;3.10;;;;;;;22.38;53.68;97650.96;105585;1256;75168;-51
2023/11/10 09:46:44;;;;;;;6.00;3.00;;;;;;;22.38;53.72;97644.27;105707;1254;66167;-51
2023/11/10 09:49:11;;;;;;;4.80;2.70;;;;;;;22.39;53.59;97641.16;105799;1251;73393;-51
2023/11/10 09:51:40;;;;;;;4.20;2.60;;;;;;;22.41;53.55;97640.48;105463;1258;61265;-51
2023/11/10 09:54:08;;;;;;;4.40;2.50;;;;;;;22.42;53.82;97635.34;105353;1254;61253;-49
2023/11/10 09:56:37;;;;;;;4.60;2.80;;;;;;;22.42;53.73;97631.04;105595;1257;74605;-49
2023/11/10 09:59:08;;;;;;;5.70;3.10;;;;;;;22.43;53.54;97625.91;105704;1256;66087;-53
2023/11/10 10:01:35;;;;;;;3.30;2.50;;;;;;;22.45;53.66;97619.85;105918;1256;72552;-55
2023/11/10 10:04:07;;;;;;;4.30;3.00;;;;;;;22.49;53.84;97619.89;105820;1251;61460;-58
2023/11/10 10:06:35;;;;;;;7.40;3.10;;;;;;;22.54;53.92;97618.05;105690;1254;61263;-57
2023/11/10 10:09:09;;;;;;;4.50;2.60;;;;;;;22.58;54.13;97613.65;105636;1252;75224;-55
2023/11/10 10:11:37;;;;;;;4.00;2.70;;;;;;;22.63;54.07;97611.30;105829;1253;64538;-56
2023/11/10 10:14:04;;;;;;;6.10;2.70;;;;;;;22.67;54.36;97609.63;105692;1252;73158;-58
2023/11/10 10:16:31;;;;;;;4.40;2.40;;;;;;;22.70;54.01;97606.83;105704;1256;61243;-63
2023/11/10 10:19:02;;;;;;;6.20;3.30;;;;;;;22.71;54.11;97598.90;105849;1251;61255;-50
2023/11/10 10:21:40;;;;;;;5.80;3.10;;;;;;;22.75;54.08;97600.79;105416;1251;75225;-52
2023/11/10 10:24:08;;;;;;;3.60;2.70;;;;;;;22.76;54.24;97595.19;105710;1254;67398;-52
2023/11/10 10:26:38;;;;;;;4.30;3.00;;;;;;;22.77;54.13;97595.98;105817;1252;73371;-50
2023/11/10 10:29:07;;;;;;;5.30;3.00;;;;;;;22.79;54.07;97593.73;105734;1256;61346;-59
2023/11/10 10:31:35;;;;;;;4.60;2.90;;;;;;;22.81;53.96;97592.17;105975;1254;61147;-52
2023/11/10 10:34:04;;;;;;;3.20;2.80;;;;;;;22.82;53.99;97587.58;105743;1251;75804;-53
2023/11/10 10:36:38;;;;;;;4.90;3.30;;;;;;;22.83;54.05;97590.25;105673;1254;65767;-56
2023/11/10 10:39:10;;;;;;;4.90;3.20;;;;;;;22.84;53.80;97588.30;105584;1256;71448;-55
2023/11/10 10:41:42;;;;;;;8.70;3.30;;;;;;;22.85;53.79;97590.11;105706;1255;61349;-53
2023/11/10 10:44:10;;;;;;;6.00;3.30;;;;;;;22.85;53.71;97587.61;105763;1257;61148;-53
2023/11/10 10:51:43;;;;;;;10.10;3.60;;;;;;;22.84;52.50;97581.06;105693;1256;67401;-48
2023/11/10 10:54:13;;;;;;;5.60;3.80;;;;;;;22.84;52.85;97580.50;105371;1253;73515;-55
2023/11/10 11:01:12;;;;;;;4.50;3.00;;;;;;;22.86;52.91;97574.73;109164;1252;59041;-48
2023/11/10 11:04:12;;;;;;;5.80;3.30;;;;;;;22.87;52.91;97572.56;108575;1254;74796;-48
2023/11/10 11:07:12;;;;;;;4.80;3.20;;;;;;;22.88;52.92;97573.52;105794;1256;66178;-47
2023/11/10 11:10:13;;;;;;;5.00;3.00;;;;;;;22.90;52.84;97574.46;105729;1256;72156;-47
2023/11/10 11:13:09;;;;;;;6.20;3.00;;;;;;;22.91;52.82;97574.93;106560;1256;61340;-46
2023/11/10 11:15:47;;;;;;;4.90;3.00;;;;;;;22.92;52.60;97570.80;105481;1256;61561;-58
2023/11/10 11:18:21;;;;;;;7.80;3.20;;;;;;;22.92;52.62;97568.99;105695;1256;74404;-45
2023/11/10 11:20:50;;;;;;;5.60;3.10;;;;;;;22.92;52.81;97573.60;105770;1254;66308;-55
2023/11/10 11:23:21;;;;;;;4.70;2.90;;;;;;;22.92;52.80;97575.79;105629;1257;73476;-49
2023/11/10 11:26:09;;;;;;;3.90;2.80;;;;;;;22.93;52.90;97570.96;105811;1252;61296;-46
2023/11/10 11:28:37;;;;;;;4.70;3.10;;;;;;;22.94;52.93;97571.44;105759;1254;61275;-45
2023/11/10 11:31:14;;;;;;;4.80;3.10;;;;;;;22.95;52.90;97573.30;105754;1254;75402;-45
2023/11/10 11:33:46;;;;;;;3.10;2.80;;;;;;;22.95;52.67;97563.96;105566;1256;67074;-50
2023/11/10 11:36:16;;;;;;;5.80;2.90;;;;;;;22.96;52.97;97561.77;105638;1254;73881;-59
2023/11/10 11:38:51;;;;;;;4.20;2.80;;;;;;;22.96;52.86;97558.34;105532;1259;61379;-60
2023/11/10 11:41:22;;;;;;;6.00;3.00;;;;;;;22.97;53.15;97553.42;105794;1256;61167;-57